Time;durP1;ratioP1;P1;durP2;ratioP2;P2;SDS_P1;SDS_P2;PMS_P1;PMS_P2;Temp;Humidity;BMP_temperature;BMP_pressure;BME280_temperature;BME280_humidity;BME280_pressure;Samples;Min_cycle;Max_cycle;Signal;HPM_P1;HPM_P2
2022/01/26 00:09:30;;;;;;;208.43;160.10;;;19.80;35.20;;;;;;4738687;55;21026;-43
2022/01/26 00:14:31;;;;;;;204.60;159.93;;;19.80;35.30;;;;;;4743759;55;21543;-36
2022/01/26 00:19:47;;;;;;;211.75;166.90;;;19.80;35.10;;;;;;4752104;55;21010;-34
2022/01/26 00:25:04;;;;;;;208.73;159.27;;;19.80;35.10;;;;;;4749383;55;21631;-39
2022/01/26 00:47:15;;;;;;;204.63;154.65;;;19.80;35.10;;;;;;4752027;55;21065;-39
2022/01/26 00:52:26;;;;;;;204.55;154.32;;;19.80;35.10;;;;;;4802717;55;21551;-40
2022/01/26 00:57:27;;;;;;;217.05;165.12;;;19.80;35.10;;;;;;4756289;55;21496;-38
2022/01/26 01:02:32;;;;;;;213.77;163.95;;;19.70;35.00;;;;;;4737597;59;21006;-39
2022/01/26 01:07:37;;;;;;;200.52;150.43;;;19.70;34.90;;;;;;4738453;59;21452;-35
2022/01/26 01:12:42;;;;;;;204.57;153.20;;;19.70;35.00;;;;;;4754665;55;21472;-38
2022/01/26 01:17:52;;;;;;;208.00;155.37;;;19.70;34.90;;;;;;4742382;55;21488;-35
2022/01/26 01:29:38;;;;;;;212.88;160.23;;;19.70;34.90;;;;;;4750287;55;21013;-39
2022/01/26 01:34:39;;;;;;;208.35;156.10;;;19.70;34.90;;;;;;4748273;55;21512;-34
2022/01/26 01:39:40;;;;;;;218.00;167.80;;;19.70;34.90;;;;;;4749263;55;21021;-40
2022/01/26 01:44:41;;;;;;;206.25;152.10;;;19.70;34.90;;;;;;4781630;55;21009;-37
2022/01/26 01:49:42;;;;;;;209.73;158.50;;;19.70;34.80;;;;;;4741413;55;21010;-40
2022/01/26 01:54:49;;;;;;;208.48;158.12;;;19.70;34.90;;;;;;4737974;59;21143;-39
2022/01/26 01:59:52;;;;;;;205.70;155.82;;;19.70;34.80;;;;;;4756429;55;21460;-39
2022/01/26 02:04:53;;;;;;;208.57;161.65;;;19.60;34.80;;;;;;4778554;55;21029;-38
2022/01/26 02:09:54;;;;;;;205.32;155.50;;;19.60;34.70;;;;;;4777584;55;21677;-36
2022/01/26 02:15:05;;;;;;;209.75;160.02;;;19.60;35.30;;;;;;4768554;55;21147;-35
2022/01/26 03:08:40;;;;;;;200.98;150.25;;;19.60;34.50;;;;;;4754594;55;21733;-38
2022/01/26 03:13:51;;;;;;;195.87;145.45;;;19.50;34.50;;;;;;4757461;55;21520;-35
2022/01/26 03:19:35;;;;;;;198.80;148.10;;;19.60;34.50;;;;;;4738324;55;21547;-44
2022/01/26 03:30:19;;;;;;;195.57;150.98;;;19.60;34.50;;;;;;4737724;55;21050;-32
2022/01/26 03:35:31;;;;;;;199.52;151.15;;;19.50;34.50;;;;;;4752612;55;21531;-39
2022/01/26 03:40:35;;;;;;;192.48;145.57;;;19.50;34.50;;;;;;4746793;55;21527;-37
2022/01/26 03:45:36;;;;;;;193.40;148.30;;;19.50;34.50;;;;;;4747252;55;21468;-42
2022/01/26 03:50:37;;;;;;;195.50;148.82;;;19.50;34.40;;;;;;4737844;59;20990;-41
2022/01/26 03:55:38;;;;;;;194.95;151.93;;;19.50;34.40;;;;;;4741681;55;21086;-42
2022/01/26 04:00:39;;;;;;;193.05;149.05;;;19.50;34.40;;;;;;4747385;55;21078;-39
2022/01/26 04:05:40;;;;;;;192.55;148.18;;;19.50;34.40;;;;;;4751277;55;21018;-39
2022/01/26 04:11:00;;;;;;;191.65;146.43;;;19.50;34.40;;;;;;4737774;59;21535;-32
2022/01/26 04:16:01;;;;;;;185.48;137.75;;;19.50;34.60;;;;;;4753228;55;21579;-39
2022/01/26 04:21:11;;;;;;;185.82;138.02;;;19.50;34.40;;;;;;4743625;55;21065;-41
2022/01/26 04:26:15;;;;;;;187.93;142.93;;;19.40;34.40;;;;;;4745614;55;21622;-42
2022/01/26 04:31:18;;;;;;;195.45;147.18;;;19.50;34.40;;;;;;4783770;55;21476;-40
2022/01/26 04:36:27;;;;;;;185.90;144.32;;;19.50;34.40;;;;;;4747318;55;21496;-42
2022/01/26 04:41:31;;;;;;;183.52;143.77;;;19.40;34.40;;;;;;4737450;59;21503;-39
2022/01/26 04:46:32;;;;;;;185.35;142.23;;;19.40;34.40;;;;;;4750922;55;21073;-43
2022/01/26 04:51:33;;;;;;;186.90;143.60;;;19.40;34.40;;;;;;4764762;55;21591;-42
2022/01/26 04:56:34;;;;;;;189.55;143.13;;;19.40;34.50;;;;;;4826841;55;21126;-43
2022/01/26 05:01:35;;;;;;;186.05;141.55;;;19.50;34.60;;;;;;4737236;59;22165;-38
2022/01/26 05:06:36;;;;;;;190.98;144.02;;;19.40;34.60;;;;;;4760495;55;21005;-38
2022/01/26 05:11:40;;;;;;;183.00;137.88;;;19.40;34.60;;;;;;4747602;55;20998;-37
2022/01/26 05:16:41;;;;;;;179.60;137.50;;;19.40;34.70;;;;;;4750684;55;21575;-38
2022/01/26 05:21:42;;;;;;;176.15;134.40;;;19.40;34.70;;;;;;4751546;55;21046;-44
2022/01/26 05:26:43;;;;;;;186.52;144.43;;;19.40;34.90;;;;;;4742766;55;21475;-42
2022/01/26 05:31:44;;;;;;;179.77;138.45;;;19.40;34.80;;;;;;4751831;55;21010;-33
2022/01/26 05:36:45;;;;;;;179.93;134.00;;;19.30;34.80;;;;;;4753359;55;21066;-38
2022/01/26 05:41:45;;;;;;;179.15;136.45;;;19.40;34.90;;;;;;4737273;59;21017;-34
2022/01/26 05:46:49;;;;;;;180.90;141.37;;;19.40;35.00;;;;;;4748281;55;21515;-37
2022/01/26 05:51:50;;;;;;;173.57;133.18;;;19.30;34.90;;;;;;4759187;55;21469;-39
2022/01/26 05:56:51;;;;;;;171.87;133.37;;;19.40;35.00;;;;;;4748123;55;21484;-42
2022/01/26 06:01:52;;;;;;;174.65;136.07;;;19.40;35.00;;;;;;4774928;55;21017;-43
2022/01/26 06:06:54;;;;;;;169.18;130.70;;;19.30;35.00;;;;;;4738069;59;21555;-42
2022/01/26 06:11:55;;;;;;;167.48;126.50;;;19.30;35.00;;;;;;4737776;59;21476;-37
2022/01/26 06:16:56;;;;;;;173.85;133.48;;;19.30;35.10;;;;;;4738410;59;21058;-44
2022/01/26 06:21:57;;;;;;;175.35;135.63;;;19.30;35.10;;;;;;4756067;55;21038;-37
2022/01/26 06:26:57;;;;;;;170.43;132.35;;;19.30;35.10;;;;;;4737523;59;21066;-37
2022/01/26 06:31:58;;;;;;;177.45;135.68;;;19.30;35.10;;;;;;4757361;55;21009;-38
2022/01/26 06:36:59;;;;;;;169.32;133.30;;;19.30;35.50;;;;;;4749113;55;21006;-38
2022/01/26 06:42:00;;;;;;;169.32;133.45;;;19.30;35.20;;;;;;4760520;55;20982;-36
2022/01/26 06:47:31;;;;;;;171.43;132.27;;;19.30;35.20;;;;;;4738475;59;21585;-42
2022/01/26 06:52:32;;;;;;;167.10;129.20;;;19.30;35.20;;;;;;4741783;55;21484;-41
2022/01/26 06:57:33;;;;;;;172.93;133.82;;;19.30;35.20;;;;;;4737435;59;21034;-39
2022/01/26 07:02:33;;;;;;;166.57;127.80;;;19.30;35.20;;;;;;4763088;55;22082;-47
2022/01/26 07:07:35;;;;;;;172.80;135.12;;;19.30;35.20;;;;;;4782722;55;21095;-38
2022/01/26 07:12:36;;;;;;;168.25;129.63;;;19.30;35.20;;;;;;4742868;55;21014;-35
2022/01/26 07:22:56;;;;;;;176.55;134.30;;;19.30;35.20;;;;;;4750816;55;21512;-38
2022/01/26 07:27:58;;;;;;;175.62;129.52;;;19.30;35.20;;;;;;4737695;59;21083;-43
2022/01/26 07:33:03;;;;;;;168.27;128.48;;;19.30;35.20;;;;;;4772572;55;21527;-38
2022/01/26 07:38:05;;;;;;;180.40;132.75;;;19.20;35.20;;;;;;4786715;55;21018;-38
2022/01/26 07:43:05;;;;;;;183.05;135.85;;;19.30;35.20;;;;;;4737247;59;21033;-39
2022/01/26 07:48:06;;;;;;;174.15;133.37;;;19.20;35.20;;;;;;4788062;55;21017;-39
2022/01/26 07:53:13;;;;;;;181.80;140.85;;;19.20;36.00;;;;;;4770111;55;21014;-37
2022/01/26 07:58:15;;;;;;;180.12;138.50;;;19.30;35.20;;;;;;4738458;59;21563;-46
2022/01/26 08:03:17;;;;;;;184.00;141.60;;;19.20;35.20;;;;;;4806477;55;21090;-38
2022/01/26 08:08:18;;;;;;;179.35;136.43;;;19.20;35.20;;;;;;4737634;59;21491;-40
2022/01/26 08:13:19;;;;;;;177.05;135.05;;;19.30;36.20;;;;;;4735711;55;21122;-48
2022/01/26 08:18:20;;;;;;;174.32;133.52;;;19.60;36.10;;;;;;4737120;59;21046;-39
2022/01/26 08:23:22;;;;;;;181.18;134.02;;;19.90;36.50;;;;;;4777392;55;21038;-40
2022/01/26 08:28:26;;;;;;;177.30;131.00;;;20.10;37.10;;;;;;4735946;59;21476;-33
2022/01/26 08:33:27;;;;;;;178.75;131.70;;;20.20;37.30;;;;;;4736858;59;22223;-36
2022/01/26 08:38:28;;;;;;;180.77;134.32;;;20.40;37.70;;;;;;4749936;55;21013;-46
2022/01/26 08:43:29;;;;;;;178.93;132.90;;;20.50;38.00;;;;;;4736411;59;21485;-46
2022/01/26 08:48:30;;;;;;;181.73;135.15;;;20.70;38.40;;;;;;4736965;55;22231;-35
2022/01/26 08:53:31;;;;;;;177.27;129.80;;;20.80;38.90;;;;;;4737328;59;21476;-43
2022/01/26 08:58:32;;;;;;;179.52;132.85;;;20.90;38.90;;;;;;4748378;55;21010;-35
2022/01/26 09:03:38;;;;;;;179.57;132.98;;;21.00;39.00;;;;;;4749756;55;22174;-34
2022/01/26 09:08:41;;;;;;;179.35;131.75;;;21.00;39.30;;;;;;4740958;55;21496;-36
2022/01/26 09:13:44;;;;;;;173.82;128.77;;;21.10;39.50;;;;;;4742564;55;21135;-37
2022/01/26 09:18:52;;;;;;;177.80;132.85;;;21.20;40.00;;;;;;4737835;59;21106;-37
2022/01/26 09:23:53;;;;;;;173.90;127.38;;;21.20;39.80;;;;;;4737389;59;22136;-37
2022/01/26 09:28:54;;;;;;;179.10;134.75;;;21.30;40.10;;;;;;4746204;55;21021;-45
2022/01/26 09:33:55;;;;;;;173.50;132.00;;;21.30;40.20;;;;;;4737910;55;22088;-40
2022/01/26 09:38:55;;;;;;;177.57;131.98;;;21.30;40.10;;;;;;4736001;59;21539;-40
2022/01/26 09:44:01;;;;;;;176.07;131.82;;;21.50;40.30;;;;;;4746576;55;21013;-43
2022/01/26 09:49:02;;;;;;;177.07;131.77;;;21.50;40.30;;;;;;4763248;55;21580;-41
2022/01/26 09:54:09;;;;;;;176.20;132.85;;;21.50;40.40;;;;;;4736799;59;21062;-47
2022/01/26 09:59:10;;;;;;;178.27;134.00;;;21.50;40.40;;;;;;4759534;55;21492;-40
2022/01/26 10:04:36;;;;;;;175.35;132.93;;;21.60;40.50;;;;;;4736326;59;21011;-38
2022/01/26 10:09:50;;;;;;;184.33;135.77;;;21.70;40.60;;;;;;4766185;55;21543;-33
2022/01/26 10:20:17;;;;;;;177.70;130.90;;;21.70;40.80;;;;;;4769515;55;21093;-35
2022/01/26 10:25:20;;;;;;;177.73;134.95;;;21.70;40.90;;;;;;4736913;59;22225;-46
2022/01/26 10:30:21;;;;;;;174.45;133.12;;;21.80;40.90;;;;;;4753393;55;21002;-46
2022/01/26 10:35:22;;;;;;;173.23;130.57;;;21.80;41.00;;;;;;4770818;55;21013;-45
2022/01/26 10:40:27;;;;;;;177.07;133.40;;;21.90;41.10;;;;;;4775559;55;20999;-38
2022/01/26 10:46:05;;;;;;;179.23;136.05;;;21.90;41.30;;;;;;4736068;55;21631;-45
2022/01/26 10:51:34;;;;;;;186.50;139.95;;;21.90;41.30;;;;;;4764999;55;21574;-40
2022/01/26 10:56:36;;;;;;;183.80;139.73;;;22.00;41.30;;;;;;4759350;55;21542;-36
2022/01/26 11:01:39;;;;;;;186.73;140.10;;;22.00;41.20;;;;;;4772163;55;21082;-42
2022/01/26 11:06:49;;;;;;;180.87;138.48;;;22.00;41.30;;;;;;4756846;55;21171;-39
2022/01/26 11:12:50;;;;;;;193.27;142.75;;;22.10;41.50;;;;;;4736758;59;20998;-37
2022/01/26 11:17:51;;;;;;;189.27;143.05;;;22.10;41.70;;;;;;4736855;59;21459;-48
2022/01/26 11:22:58;;;;;;;187.62;143.35;;;22.20;42.00;;;;;;4736815;55;21157;-45
2022/01/26 11:27:59;;;;;;;189.00;144.87;;;22.20;42.00;;;;;;4742557;55;21142;-43
2022/01/26 11:33:02;;;;;;;189.77;141.57;;;22.20;42.10;;;;;;4745061;55;22256;-44
2022/01/26 11:50:24;;;;;;;187.75;145.48;;;22.30;42.30;;;;;;4780691;55;21122;-42
2022/01/26 11:55:49;;;;;;;183.93;141.50;;;22.40;42.50;;;;;;4807990;55;21113;-45
2022/01/26 12:06:34;;;;;;;195.73;146.75;;;22.40;42.70;;;;;;4736224;55;21101;-43
2022/01/26 12:11:36;;;;;;;193.73;149.07;;;22.50;43.30;;;;;;4776915;55;21500;-46
2022/01/26 12:16:45;;;;;;;198.93;148.93;;;22.50;42.70;;;;;;4744315;55;21121;-32
2022/01/26 12:34:59;;;;;;;198.20;152.68;;;22.40;41.70;;;;;;4741044;55;21615;-39
2022/01/26 12:45:24;;;;;;;204.87;155.80;;;22.30;41.00;;;;;;4750591;55;21367;-38
2022/01/26 12:50:26;;;;;;;196.93;148.23;;;22.30;40.80;;;;;;4764900;55;21073;-38
2022/01/26 12:55:32;;;;;;;207.35;155.20;;;22.30;40.60;;;;;;4751230;55;21507;-43
2022/01/26 13:01:54;;;;;;;217.82;162.62;;;22.30;40.30;;;;;;4736196;59;21082;-38
2022/01/26 13:06:55;;;;;;;209.43;159.10;;;22.40;40.60;;;;;;4741770;55;21018;-38
2022/01/26 13:12:03;;;;;;;215.70;158.77;;;22.40;40.80;;;;;;4745255;55;21480;-38
2022/01/26 13:17:37;;;;;;;210.18;161.88;;;22.50;41.00;;;;;;4750333;55;21484;-40
2022/01/26 13:29:27;;;;;;;210.00;159.93;;;22.60;41.50;;;;;;4761913;55;21042;-40
2022/01/26 13:35:01;;;;;;;205.32;154.80;;;22.60;41.70;;;;;;4760764;55;21512;-46
2022/01/26 13:48:15;;;;;;;204.95;159.68;;;22.70;42.00;;;;;;4748069;55;21097;-42
2022/01/26 13:53:24;;;;;;;216.20;158.23;;;22.70;42.20;;;;;;4742540;55;21046;-43
2022/01/26 13:58:46;;;;;;;208.57;159.30;;;22.70;42.40;;;;;;4770106;55;21599;-46
2022/01/26 14:03:51;;;;;;;206.70;159.02;;;22.80;42.60;;;;;;4736762;55;21075;-43
2022/01/26 14:08:52;;;;;;;204.05;155.32;;;22.80;42.90;;;;;;4760158;55;21655;-43
2022/01/26 14:13:56;;;;;;;203.32;157.62;;;22.80;43.10;;;;;;4736648;59;21094;-40
2022/01/26 14:19:13;;;;;;;210.15;160.20;;;22.90;43.40;;;;;;4738356;55;21552;-33
2022/01/26 14:24:49;;;;;;;210.05;156.50;;;22.90;43.40;;;;;;4742151;55;21574;-45
2022/01/26 14:35:42;;;;;;;196.82;155.82;;;22.90;43.60;;;;;;4735726;59;21062;-35
2022/01/26 15:33:40;;;;;;;206.38;165.57;;;22.90;43.70;;;;;;4746177;55;21133;-41
2022/01/26 15:52:11;;;;;;;204.85;164.62;;;22.40;43.40;;;;;;4750153;55;21069;-44
2022/01/26 16:06:59;;;;;;;202.85;157.82;;;22.10;43.20;;;;;;4748070;55;21038;-43
2022/01/26 16:37:43;;;;;;;211.18;174.27;;;21.60;43.80;;;;;;4742261;55;21077;-36
2022/01/26 18:17:47;;;;;;;217.15;179.12;;;20.80;46.20;;;;;;4759099;55;21543;-45
2022/01/26 18:52:38;;;;;;;215.10;177.82;;;20.60;46.60;;;;;;4737744;55;21054;-48
2022/01/26 18:57:40;;;;;;;220.93;181.82;;;20.60;47.00;;;;;;4737647;59;21492;-43
2022/01/26 19:02:40;;;;;;;226.02;186.40;;;20.60;47.00;;;;;;4741091;55;21014;-42
2022/01/26 19:07:41;;;;;;;210.45;169.90;;;20.60;47.00;;;;;;4741185;55;21503;-36
2022/01/26 19:12:44;;;;;;;213.52;175.20;;;20.60;47.10;;;;;;4745740;55;21449;-36
2022/01/26 19:17:52;;;;;;;222.32;188.07;;;20.50;47.00;;;;;;4738785;55;21599;-36
2022/01/26 19:23:29;;;;;;;218.70;181.55;;;20.50;47.20;;;;;;4743973;55;21555;-41
2022/01/26 19:28:36;;;;;;;;;;;20.50;47.30;;;;;;4741200;59;21980;-41
2022/01/26 19:45:05;;;;;;;220.30;179.52;;;20.50;47.60;;;;;;4765994;55;21090;-44
2022/01/26 19:55:27;;;;;;;217.65;177.55;;;20.40;47.70;;;;;;4737601;55;21034;-41
2022/01/26 20:00:28;;;;;;;218.70;181.93;;;20.40;47.90;;;;;;4769095;55;21069;-45
2022/01/26 20:05:33;;;;;;;216.07;172.10;;;20.40;48.00;;;;;;4813426;55;21069;-35
2022/01/26 20:10:40;;;;;;;218.77;179.38;;;20.40;47.90;;;;;;4753585;55;22235;-37
2022/01/26 20:15:41;;;;;;;222.82;181.07;;;20.40;47.90;;;;;;4749094;55;21538;-43
2022/01/26 20:20:42;;;;;;;223.62;184.15;;;20.30;48.20;;;;;;4773286;55;21106;-37
2022/01/26 20:25:47;;;;;;;229.95;188.98;;;20.30;48.10;;;;;;4745996;55;21053;-44
2022/01/26 20:30:48;;;;;;;227.82;187.05;;;20.30;48.10;;;;;;4743722;55;21536;-45
2022/01/26 20:35:49;;;;;;;211.40;169.80;;;20.30;48.20;;;;;;4768826;55;21022;-46
2022/01/26 20:40:50;;;;;;;224.62;186.30;;;20.30;48.40;;;;;;4738056;59;21448;-41
2022/01/26 20:45:51;;;;;;;231.30;186.23;;;20.30;48.40;;;;;;4737166;59;21480;-47
2022/01/26 20:50:51;;;;;;;229.75;189.98;;;20.20;48.30;;;;;;4750683;55;21126;-40
2022/01/26 20:55:52;;;;;;;224.88;181.63;;;20.20;48.40;;;;;;4738322;59;21025;-45
2022/01/26 21:00:54;;;;;;;221.70;181.20;;;20.30;48.50;;;;;;4754939;55;21264;-34
2022/01/26 21:05:55;;;;;;;233.40;189.62;;;20.20;48.60;;;;;;4797869;55;21511;-39
2022/01/26 21:10:57;;;;;;;231.07;183.68;;;20.20;48.60;;;;;;4738183;59;21045;-49
2022/01/26 21:15:58;;;;;;;223.68;182.73;;;20.20;49.00;;;;;;4738680;55;21113;-45
2022/01/26 21:21:00;;;;;;;218.80;181.37;;;20.20;48.90;;;;;;4754551;55;21532;-39
2022/01/26 21:26:01;;;;;;;225.13;186.80;;;20.20;49.00;;;;;;4757691;55;20990;-41
2022/01/26 21:31:02;;;;;;;217.95;171.48;;;20.10;49.20;;;;;;4749281;55;21100;-45
2022/01/26 21:36:09;;;;;;;220.12;175.80;;;20.20;49.20;;;;;;4760448;55;21029;-42
2022/01/26 21:41:10;;;;;;;231.90;188.40;;;20.10;49.40;;;;;;4760778;55;21069;-37
2022/01/26 21:46:11;;;;;;;223.38;185.23;;;20.10;49.50;;;;;;4783366;55;21025;-38
2022/01/26 21:51:12;;;;;;;232.62;192.57;;;20.10;49.60;;;;;;4738625;55;21495;-38
2022/01/26 21:56:13;;;;;;;222.12;175.70;;;20.10;49.60;;;;;;4759611;55;21106;-37
2022/01/26 22:01:14;;;;;;;228.70;189.05;;;20.10;50.40;;;;;;4787801;55;20986;-43
2022/01/26 22:06:16;;;;;;;218.12;168.18;;;20.10;50.10;;;;;;4761324;55;21097;-35
2022/01/26 22:11:17;;;;;;;222.80;172.87;;;20.10;49.90;;;;;;4751706;55;21010;-36
2022/01/26 22:16:18;;;;;;;215.40;174.82;;;20.10;50.00;;;;;;4737978;59;22057;-41
2022/01/26 22:21:19;;;;;;;218.70;174.50;;;20.00;50.00;;;;;;4741171;55;21448;-36
2022/01/26 22:26:20;;;;;;;224.68;178.62;;;20.10;50.40;;;;;;4744578;55;21046;-38
2022/01/26 22:31:22;;;;;;;230.65;190.00;;;20.10;50.50;;;;;;4737782;56;20998;-35
2022/01/26 22:36:23;;;;;;;220.10;179.80;;;20.00;50.30;;;;;;4785810;55;21010;-35
2022/01/26 22:41:24;;;;;;;231.55;188.87;;;20.00;50.50;;;;;;4759178;55;21158;-38
2022/01/26 22:46:25;;;;;;;227.07;175.38;;;20.00;50.60;;;;;;4753016;55;21054;-39
2022/01/26 22:51:27;;;;;;;231.48;190.00;;;20.00;50.60;;;;;;4744633;55;21456;-35
2022/01/26 22:56:29;;;;;;;223.90;183.12;;;20.00;50.80;;;;;;4737838;59;21026;-34
2022/01/26 23:13:20;;;;;;;221.10;173.90;;;20.00;50.90;;;;;;4761650;55;21101;-41
2022/01/26 23:18:21;;;;;;;218.10;176.27;;;19.90;51.00;;;;;;4737901;59;21033;-45
2022/01/26 23:23:24;;;;;;;222.43;178.73;;;19.90;51.10;;;;;;4737835;59;21516;-42
2022/01/26 23:28:52;;;;;;;226.57;184.95;;;19.90;51.00;;;;;;4763553;55;21069;-38
2022/01/26 23:39:29;;;;;;;217.90;168.77;;;19.90;51.10;;;;;;4748450;55;21077;-36
